Samus Swan — 9HA2333 — position and weather

sailwx.info

Track history (hours):
 
Tides and Currents Weather Stations Pressure Air Temp Water Temp Dewpoint Dewpoint Depression Visibility Wind Speed Wind Dir Waves Ship Positions

Samus Swan

Last reported at 2016-Feb-07 05:31 UTC. Time now 2016-Feb-10 06:46 UTC.
Position N 32°53' E 034°55'.

Length 106 m; draft 5 m.

Type: Tanker. MMSI: 248363000.

Date/timePositionNaut miles runAvg speedWind from/ knotsBaromVisibWave heightAir tempDewpointWater temp
2016-Feb-07 05:31N 32°53' E 034°55'1110.9
2016-Feb-07 04:32N 32°55' E 034°43'50411.7
2016-Feb-05 09:26N 37°24' E 026°02'1112.4
2016-Feb-05 08:33N 37°32' E 025°52'  
2016-Jan-31 16:33N 40°58' E 028°60'10 9.6
2016-Jan-31 15:33N 40°49' E 029°05'3 2.6
2016-Jan-31 14:33N 40°47' E 029°06'1 0.7
2016-Jan-31 13:30N 40°47' E 029°06'0 0.5
2016-Jan-31 12:33N 40°47' E 029°05'0 0.3
2016-Jan-31 11:32N 40°46' E 029°05'8 8.2
2016-Jan-31 10:33N 40°42' E 028°56'1 0.8
2016-Jan-31 09:27N 40°42' E 028°58'1 0.7
2016-Jan-31 08:32N 40°42' E 028°58'1 0.6
2016-Jan-31 07:33N 40°43' E 028°58'0 0.4
2016-Jan-31 06:33N 40°43' E 028°58'0 0.4
2016-Jan-31 05:33N 40°44' E 028°58'1 0.5
2016-Jan-31 04:31N 40°44' E 028°58'0 0.4
2016-Jan-31 03:33N 40°45' E 028°58'1 0.5
2016-Jan-31 02:17N 40°45' E 028°58'0 0.1
2016-Jan-31 01:30N 40°45' E 028°57'0 0.0
2016-Jan-30 23:32N 40°45' E 028°57'0 0.0
2016-Jan-30 22:23N 40°45' E 028°57'0 0.2
2016-Jan-30 21:30N 40°45' E 028°57'0 0.1
2016-Jan-30 20:23N 40°45' E 028°57'4 4.4
2016-Jan-30 19:34N 40°47' E 029°01'3 3.3
2016-Jan-30 18:33N 40°51' E 028°60'3 2.9
2016-Jan-30 17:33N 40°48' E 029°02'4 4.5
2016-Jan-30 16:34N 40°47' E 029°08'1211.5
2016-Jan-30 15:32N 40°45' E 029°23'  
Track history (hours):
 
Tides and Currents Weather Stations Pressure Air Temp Water Temp Dewpoint Dewpoint Depression Visibility Wind Speed Wind Dir Waves Ship Positions

Samus Swan

Last reported at 2016-Feb-07 05:31 UTC. Time now 2016-Feb-10 06:46 UTC.
Position N 32°53' E 034°55'.

Length 106 m; draft 5 m.

Type: Tanker. MMSI: 248363000.

Date/timePositionNaut miles runAvg speedWind from/ knotsBaromVisibWave heightAir tempDewpointWater temp
2016-Feb-07 05:31N 32°53' E 034°55'1110.9
2016-Feb-07 04:32N 32°55' E 034°43'50411.7
2016-Feb-05 09:26N 37°24' E 026°02'1112.4
2016-Feb-05 08:33N 37°32' E 025°52'  
2016-Jan-31 16:33N 40°58' E 028°60'10 9.6
2016-Jan-31 15:33N 40°49' E 029°05'3 2.6
2016-Jan-31 14:33N 40°47' E 029°06'1 0.7
2016-Jan-31 13:30N 40°47' E 029°06'0 0.5
2016-Jan-31 12:33N 40°47' E 029°05'0 0.3
2016-Jan-31 11:32N 40°46' E 029°05'8 8.2
2016-Jan-31 10:33N 40°42' E 028°56'1 0.8
2016-Jan-31 09:27N 40°42' E 028°58'1 0.7
2016-Jan-31 08:32N 40°42' E 028°58'1 0.6
2016-Jan-31 07:33N 40°43' E 028°58'0 0.4
2016-Jan-31 06:33N 40°43' E 028°58'0 0.4
2016-Jan-31 05:33N 40°44' E 028°58'1 0.5
2016-Jan-31 04:31N 40°44' E 028°58'0 0.4
2016-Jan-31 03:33N 40°45' E 028°58'1 0.5
2016-Jan-31 02:17N 40°45' E 028°58'0 0.1
2016-Jan-31 01:30N 40°45' E 028°57'0 0.0
2016-Jan-30 23:32N 40°45' E 028°57'0 0.0
2016-Jan-30 22:23N 40°45' E 028°57'0 0.2
2016-Jan-30 21:30N 40°45' E 028°57'0 0.1
2016-Jan-30 20:23N 40°45' E 028°57'4 4.4
2016-Jan-30 19:34N 40°47' E 029°01'3 3.3
2016-Jan-30 18:33N 40°51' E 028°60'3 2.9
2016-Jan-30 17:33N 40°48' E 029°02'4 4.5
2016-Jan-30 16:34N 40°47' E 029°08'1211.5
2016-Jan-30 15:32N 40°45' E 029°23'  

Dump ship's entire track history